sensor_id;sensor_type;location;lat;lon;timestamp;pressure;altitude;pressure_sealevel;temperature
28305;BMP280;15569;42.652;23.040;2023-02-25T00:00:14;92404.28;;;11.15
28305;BMP280;15569;42.652;23.040;2023-02-25T00:02:48;92381.56;;;11.26
28305;BMP280;15569;42.652;23.040;2023-02-25T00:05:15;92403.56;;;11.32
28305;BMP280;15569;42.652;23.040;2023-02-25T00:07:40;92393.16;;;11.44
28305;BMP280;15569;42.652;23.040;2023-02-25T00:10:07;92394.75;;;11.51
28305;BMP280;15569;42.652;23.040;2023-02-25T00:12:33;92401.44;;;11.48
28305;BMP280;15569;42.652;23.040;2023-02-25T00:14:59;92404.16;;;11.48
28305;BMP280;15569;42.652;23.040;2023-02-25T00:17:24;92384.69;;;11.36
28305;BMP280;15569;42.652;23.040;2023-02-25T00:19:50;92399.50;;;11.51
28305;BMP280;15569;42.652;23.040;2023-02-25T00:22:15;92376.72;;;11.25
28305;BMP280;15569;42.652;23.040;2023-02-25T00:24:41;92398.38;;;11.38
28305;BMP280;15569;42.652;23.040;2023-02-25T00:27:07;92398.81;;;11.50
28305;BMP280;15569;42.652;23.040;2023-02-25T00:29:32;92392.47;;;11.46
28305;BMP280;15569;42.652;23.040;2023-02-25T00:31:57;92392.66;;;11.50
28305;BMP280;15569;42.652;23.040;2023-02-25T00:34:23;92382.97;;;11.45
28305;BMP280;15569;42.652;23.040;2023-02-25T00:36:48;92376.94;;;11.48
28305;BMP280;15569;42.652;23.040;2023-02-25T00:39:14;92384.09;;;11.40
28305;BMP280;15569;42.652;23.040;2023-02-25T00:41:40;92377.34;;;11.41
28305;BMP280;15569;42.652;23.040;2023-02-25T00:44:05;92385.50;;;11.41
28305;BMP280;15569;42.652;23.040;2023-02-25T00:46:31;92377.56;;;11.47
28305;BMP280;15569;42.652;23.040;2023-02-25T00:48:58;92370.03;;;11.45
28305;BMP280;15569;42.652;23.040;2023-02-25T00:51:26;92360.72;;;11.50
28305;BMP280;15569;42.652;23.040;2023-02-25T00:53:53;92359.53;;;11.55
28305;BMP280;15569;42.652;23.040;2023-02-25T00:56:21;92351.66;;;11.46
28305;BMP280;15569;42.652;23.040;2023-02-25T00:58:48;92340.53;;;11.57
28305;BMP280;15569;42.652;23.040;2023-02-25T01:01:23;92341.72;;;11.52
28305;BMP280;15569;42.652;23.040;2023-02-25T01:03:50;92334.88;;;11.51
28305;BMP280;15569;42.652;23.040;2023-02-25T01:06:16;92350.66;;;11.55
28305;BMP280;15569;42.652;23.040;2023-02-25T01:08:42;92327.13;;;11.44
28305;BMP280;15569;42.652;23.040;2023-02-25T01:11:16;92332.09;;;11.49
28305;BMP280;15569;42.652;23.040;2023-02-25T01:13:46;92326.63;;;11.49
28305;BMP280;15569;42.652;23.040;2023-02-25T01:16:13;92325.88;;;11.47
28305;BMP280;15569;42.652;23.040;2023-02-25T01:18:40;92325.22;;;11.48
28305;BMP280;15569;42.652;23.040;2023-02-25T01:21:06;92321.19;;;11.49
28305;BMP280;15569;42.652;23.040;2023-02-25T01:23:31;92326.19;;;11.37
28305;BMP280;15569;42.652;23.040;2023-02-25T01:25:56;92317.56;;;11.43
28305;BMP280;15569;42.652;23.040;2023-02-25T01:28:22;92329.84;;;11.44
28305;BMP280;15569;42.652;23.040;2023-02-25T01:30:47;92326.16;;;11.55
28305;BMP280;15569;42.652;23.040;2023-02-25T01:33:13;92318.47;;;11.49
28305;BMP280;15569;42.652;23.040;2023-02-25T01:35:38;92319.78;;;11.48
28305;BMP280;15569;42.652;23.040;2023-02-25T01:38:03;92320.59;;;11.51
28305;BMP280;15569;42.652;23.040;2023-02-25T01:40:29;92321.13;;;11.47
28305;BMP280;15569;42.652;23.040;2023-02-25T01:42:54;92307.53;;;11.47
28305;BMP280;15569;42.652;23.040;2023-02-25T01:45:27;92308.72;;;11.42
28305;BMP280;15569;42.652;23.040;2023-02-25T01:48:00;92296.75;;;11.32
28305;BMP280;15569;42.652;23.040;2023-02-25T01:50:35;92318.56;;;11.34
28305;BMP280;15569;42.652;23.040;2023-02-25T01:53:02;92294.31;;;11.40
28305;BMP280;15569;42.652;23.040;2023-02-25T01:55:29;92308.50;;;11.56
28305;BMP280;15569;42.652;23.040;2023-02-25T01:57:56;92311.56;;;11.46
28305;BMP280;15569;42.652;23.040;2023-02-25T02:00:22;92316.47;;;11.50
28305;BMP280;15569;42.652;23.040;2023-02-25T02:02:48;92316.59;;;11.54
28305;BMP280;15569;42.652;23.040;2023-02-25T02:05:14;92310.44;;;11.53
28305;BMP280;15569;42.652;23.040;2023-02-25T02:07:40;92299.13;;;11.41
28305;BMP280;15569;42.652;23.040;2023-02-25T02:10:06;92294.47;;;11.44
28305;BMP280;15569;42.652;23.040;2023-02-25T02:12:34;92280.88;;;11.44
28305;BMP280;15569;42.652;23.040;2023-02-25T02:15:03;92284.63;;;11.54
28305;BMP280;15569;42.652;23.040;2023-02-25T02:20:18;92294.25;;;11.57
28305;BMP280;15569;42.652;23.040;2023-02-25T02:22:55;92290.06;;;11.54
28305;BMP280;15569;42.652;23.040;2023-02-25T02:28:20;92288.75;;;11.55
28305;BMP280;15569;42.652;23.040;2023-02-25T02:36:41;92278.19;;;11.46
28305;BMP280;15569;42.652;23.040;2023-02-25T02:39:17;92273.69;;;11.52
28305;BMP280;15569;42.652;23.040;2023-02-25T02:41:49;92262.47;;;11.42
28305;BMP280;15569;42.652;23.040;2023-02-25T02:44:27;92267.97;;;11.44
28305;BMP280;15569;42.652;23.040;2023-02-25T02:47:05;92261.19;;;11.45
28305;BMP280;15569;42.652;23.040;2023-02-25T02:49:43;92261.25;;;11.47
28305;BMP280;15569;42.652;23.040;2023-02-25T02:52:18;92258.31;;;11.41
28305;BMP280;15569;42.652;23.040;2023-02-25T02:54:52;92254.28;;;11.42
28305;BMP280;15569;42.652;23.040;2023-02-25T02:57:20;92248.22;;;11.44
28305;BMP280;15569;42.652;23.040;2023-02-25T02:59:51;92247.03;;;11.29
28305;BMP280;15569;42.652;23.040;2023-02-25T03:02:26;92228.50;;;11.26
28305;BMP280;15569;42.652;23.040;2023-02-25T03:04:56;92254.81;;;11.39
28305;BMP280;15569;42.652;23.040;2023-02-25T03:07:23;92252.59;;;11.33
28305;BMP280;15569;42.652;23.040;2023-02-25T03:09:57;92251.16;;;11.30
28305;BMP280;15569;42.652;23.040;2023-02-25T03:12:24;92246.03;;;11.40
28305;BMP280;15569;42.652;23.040;2023-02-25T03:14:49;92240.09;;;11.26
28305;BMP280;15569;42.652;23.040;2023-02-25T03:19:54;92249.88;;;11.33
28305;BMP280;15569;42.652;23.040;2023-02-25T03:22:26;92250.44;;;11.30
28305;BMP280;15569;42.652;23.040;2023-02-25T03:29:48;92246.53;;;11.15
28305;BMP280;15569;42.652;23.040;2023-02-25T03:32:15;92243.41;;;11.25
28305;BMP280;15569;42.652;23.040;2023-02-25T03:34:46;92245.00;;;11.30
28305;BMP280;15569;42.652;23.040;2023-02-25T03:37:17;92243.91;;;11.19
28305;BMP280;15569;42.652;23.040;2023-02-25T03:39:49;92236.03;;;11.07
28305;BMP280;15569;42.652;23.040;2023-02-25T03:42:19;92243.56;;;11.09
28305;BMP280;15569;42.652;23.040;2023-02-25T03:44:51;92246.56;;;11.17
28305;BMP280;15569;42.652;23.040;2023-02-25T03:47:18;92245.84;;;11.17
28305;BMP280;15569;42.652;23.040;2023-02-25T03:50:06;92244.81;;;11.06
28305;BMP280;15569;42.652;23.040;2023-02-25T03:52:34;92252.28;;;11.05
28305;BMP280;15569;42.652;23.040;2023-02-25T03:55:00;92252.41;;;11.09
28305;BMP280;15569;42.652;23.040;2023-02-25T03:57:35;92239.84;;;11.00
28305;BMP280;15569;42.652;23.040;2023-02-25T04:00:04;92241.63;;;11.12
28305;BMP280;15569;42.652;23.040;2023-02-25T04:02:40;92248.38;;;10.93
28305;BMP280;15569;42.652;23.040;2023-02-25T04:05:05;92243.13;;;10.97
28305;BMP280;15569;42.652;23.040;2023-02-25T04:07:31;92239.78;;;10.98
28305;BMP280;15569;42.652;23.040;2023-02-25T04:09:56;92234.03;;;10.90
28305;BMP280;15569;42.652;23.040;2023-02-25T04:12:22;92218.03;;;10.46
28305;BMP280;15569;42.652;23.040;2023-02-25T04:14:47;92237.84;;;10.66
28305;BMP280;15569;42.652;23.040;2023-02-25T04:17:13;92244.00;;;10.66
28305;BMP280;15569;42.652;23.040;2023-02-25T04:19:38;92235.19;;;10.32
28305;BMP280;15569;42.652;23.040;2023-02-25T04:22:03;92248.22;;;10.54
28305;BMP280;15569;42.652;23.040;2023-02-25T04:24:32;92244.13;;;10.53
28305;BMP280;15569;42.652;23.040;2023-02-25T04:26:57;92234.03;;;10.55
28305;BMP280;15569;42.652;23.040;2023-02-25T04:29:26;92225.25;;;10.39
28305;BMP280;15569;42.652;23.040;2023-02-25T04:31:51;92225.97;;;10.40
28305;BMP280;15569;42.652;23.040;2023-02-25T04:34:17;92219.44;;;10.47
28305;BMP280;15569;42.652;23.040;2023-02-25T04:36:44;92213.91;;;10.45
28305;BMP280;15569;42.652;23.040;2023-02-25T04:39:11;92207.44;;;10.52
28305;BMP280;15569;42.652;23.040;2023-02-25T04:41:37;92189.88;;;10.02
28305;BMP280;15569;42.652;23.040;2023-02-25T04:44:04;92202.50;;;10.30
28305;BMP280;15569;42.652;23.040;2023-02-25T04:46:31;92205.00;;;10.24
28305;BMP280;15569;42.652;23.040;2023-02-25T04:48:57;92208.25;;;10.39
28305;BMP280;15569;42.652;23.040;2023-02-25T04:51:22;92198.09;;;10.57
28305;BMP280;15569;42.652;23.040;2023-02-25T04:53:48;92198.72;;;10.38
28305;BMP280;15569;42.652;23.040;2023-02-25T04:56:13;92181.41;;;10.29
28305;BMP280;15569;42.652;23.040;2023-02-25T04:58:39;92197.25;;;10.35
28305;BMP280;15569;42.652;23.040;2023-02-25T05:01:06;92206.31;;;10.41
28305;BMP280;15569;42.652;23.040;2023-02-25T05:03:32;92185.91;;;10.22
28305;BMP280;15569;42.652;23.040;2023-02-25T05:05:58;92197.94;;;10.53
28305;BMP280;15569;42.652;23.040;2023-02-25T05:08:23;92191.97;;;10.56
28305;BMP280;15569;42.652;23.040;2023-02-25T05:10:49;92200.81;;;10.57
28305;BMP280;15569;42.652;23.040;2023-02-25T05:13:16;92188.72;;;10.60
28305;BMP280;15569;42.652;23.040;2023-02-25T05:15:41;92201.25;;;10.69
28305;BMP280;15569;42.652;23.040;2023-02-25T05:18:07;92185.44;;;10.46
28305;BMP280;15569;42.652;23.040;2023-02-25T05:20:32;92217.28;;;10.61
28305;BMP280;15569;42.652;23.040;2023-02-25T05:22:58;92222.06;;;10.45
28305;BMP280;15569;42.652;23.040;2023-02-25T05:25:23;92225.53;;;10.12
28305;BMP280;15569;42.652;23.040;2023-02-25T05:27:49;92224.25;;;10.30
28305;BMP280;15569;42.652;23.040;2023-02-25T05:30:15;92214.00;;;10.29
28305;BMP280;15569;42.652;23.040;2023-02-25T05:32:40;92203.91;;;10.14
28305;BMP280;15569;42.652;23.040;2023-02-25T05:35:07;92180.97;;;10.17
28305;BMP280;15569;42.652;23.040;2023-02-25T05:37:34;92191.72;;;10.32
28305;BMP280;15569;42.652;23.040;2023-02-25T05:42:44;92212.84;;;10.16
28305;BMP280;15569;42.652;23.040;2023-02-25T05:45:13;92216.94;;;10.17
28305;BMP280;15569;42.652;23.040;2023-02-25T05:47:39;92214.81;;;10.49
28305;BMP280;15569;42.652;23.040;2023-02-25T05:50:05;92223.19;;;10.55
28305;BMP280;15569;42.652;23.040;2023-02-25T05:52:30;92225.72;;;10.69
28305;BMP280;15569;42.652;23.040;2023-02-25T05:54:56;92215.50;;;10.67
28305;BMP280;15569;42.652;23.040;2023-02-25T05:57:21;92235.13;;;10.83
28305;BMP280;15569;42.652;23.040;2023-02-25T05:59:48;92243.13;;;10.97
28305;BMP280;15569;42.652;23.040;2023-02-25T06:02:14;92238.13;;;11.09
28305;BMP280;15569;42.652;23.040;2023-02-25T06:04:39;92234.16;;;11.12
28305;BMP280;15569;42.652;23.040;2023-02-25T06:07:05;92219.44;;;11.19
28305;BMP280;15569;42.652;23.040;2023-02-25T06:09:31;92230.53;;;11.25
28305;BMP280;15569;42.652;23.040;2023-02-25T06:11:58;92216.38;;;11.29
28305;BMP280;15569;42.652;23.040;2023-02-25T06:14:24;92219.31;;;11.35
28305;BMP280;15569;42.652;23.040;2023-02-25T06:16:49;92208.72;;;11.23
28305;BMP280;15569;42.652;23.040;2023-02-25T06:19:15;92210.38;;;11.32
28305;BMP280;15569;42.652;23.040;2023-02-25T06:21:41;92222.63;;;11.51
28305;BMP280;15569;42.652;23.040;2023-02-25T06:24:07;92208.38;;;11.52
28305;BMP280;15569;42.652;23.040;2023-02-25T06:26:33;92201.81;;;11.59
28305;BMP280;15569;42.652;23.040;2023-02-25T06:28:59;92214.28;;;11.66
28305;BMP280;15569;42.652;23.040;2023-02-25T06:31:25;92215.53;;;11.63
28305;BMP280;15569;42.652;23.040;2023-02-25T06:33:52;92219.59;;;11.62
28305;BMP280;15569;42.652;23.040;2023-02-25T06:36:19;92214.59;;;11.74
28305;BMP280;15569;42.652;23.040;2023-02-25T06:38:46;92217.50;;;11.80
28305;BMP280;15569;42.652;23.040;2023-02-25T06:41:17;92213.78;;;11.92
28305;BMP280;15569;42.652;23.040;2023-02-25T06:43:44;92222.19;;;11.78
28305;BMP280;15569;42.652;23.040;2023-02-25T06:46:12;92215.09;;;11.91
28305;BMP280;15569;42.652;23.040;2023-02-25T06:48:38;92196.19;;;11.95
28305;BMP280;15569;42.652;23.040;2023-02-25T06:51:04;92193.84;;;12.07
28305;BMP280;15569;42.652;23.040;2023-02-25T06:53:34;92184.66;;;11.96
28305;BMP280;15569;42.652;23.040;2023-02-25T06:56:00;92190.59;;;12.12
28305;BMP280;15569;42.652;23.040;2023-02-25T06:58:25;92196.88;;;12.17
28305;BMP280;15569;42.652;23.040;2023-02-25T07:00:50;92188.28;;;12.24
28305;BMP280;15569;42.652;23.040;2023-02-25T07:03:16;92190.44;;;12.28
28305;BMP280;15569;42.652;23.040;2023-02-25T07:05:41;92188.66;;;12.36
28305;BMP280;15569;42.652;23.040;2023-02-25T07:08:07;92189.38;;;12.39
28305;BMP280;15569;42.652;23.040;2023-02-25T07:10:33;92178.16;;;12.50
28305;BMP280;15569;42.652;23.040;2023-02-25T07:12:58;92178.06;;;12.46
28305;BMP280;15569;42.652;23.040;2023-02-25T07:15:24;92163.78;;;12.48
28305;BMP280;15569;42.652;23.040;2023-02-25T07:17:49;92175.22;;;12.66
28305;BMP280;15569;42.652;23.040;2023-02-25T07:20:14;92173.38;;;12.73
28305;BMP280;15569;42.652;23.040;2023-02-25T07:22:40;92172.50;;;12.66
28305;BMP280;15569;42.652;23.040;2023-02-25T07:25:10;92175.31;;;12.46
28305;BMP280;15569;42.652;23.040;2023-02-25T07:27:39;92164.31;;;11.77
28305;BMP280;15569;42.652;23.040;2023-02-25T07:30:05;92169.56;;;11.13
28305;BMP280;15569;42.652;23.040;2023-02-25T07:32:31;92164.28;;;11.36
28305;BMP280;15569;42.652;23.040;2023-02-25T07:34:57;92161.22;;;11.26
28305;BMP280;15569;42.652;23.040;2023-02-25T07:37:22;92154.09;;;11.56
28305;BMP280;15569;42.652;23.040;2023-02-25T07:39:47;92153.22;;;11.30
28305;BMP280;15569;42.652;23.040;2023-02-25T07:42:13;92140.22;;;11.09
28305;BMP280;15569;42.652;23.040;2023-02-25T07:44:38;92155.13;;;11.08
28305;BMP280;15569;42.652;23.040;2023-02-25T07:47:04;92141.69;;;11.12
28305;BMP280;15569;42.652;23.040;2023-02-25T07:49:29;92140.22;;;11.29
28305;BMP280;15569;42.652;23.040;2023-02-25T07:51:55;92142.22;;;11.28
28305;BMP280;15569;42.652;23.040;2023-02-25T07:54:20;92134.81;;;11.31
28305;BMP280;15569;42.652;23.040;2023-02-25T07:56:47;92125.00;;;11.22
28305;BMP280;15569;42.652;23.040;2023-02-25T07:59:15;92130.59;;;11.06
28305;BMP280;15569;42.652;23.040;2023-02-25T08:01:41;92137.94;;;11.21
28305;BMP280;15569;42.652;23.040;2023-02-25T08:04:08;92128.19;;;11.16
28305;BMP280;15569;42.652;23.040;2023-02-25T08:06:36;92132.31;;;11.17
28305;BMP280;15569;42.652;23.040;2023-02-25T08:09:06;92139.38;;;11.44
28305;BMP280;15569;42.652;23.040;2023-02-25T08:11:32;92136.97;;;11.54
28305;BMP280;15569;42.652;23.040;2023-02-25T08:14:00;92141.63;;;11.30
28305;BMP280;15569;42.652;23.040;2023-02-25T08:16:26;92130.97;;;11.57
28305;BMP280;15569;42.652;23.040;2023-02-25T08:18:52;92125.13;;;11.45
28305;BMP280;15569;42.652;23.040;2023-02-25T08:21:20;92137.22;;;11.81
28305;BMP280;15569;42.652;23.040;2023-02-25T08:23:46;92141.25;;;12.02
28305;BMP280;15569;42.652;23.040;2023-02-25T08:26:15;92124.34;;;11.84
28305;BMP280;15569;42.652;23.040;2023-02-25T08:28:46;92133.56;;;11.97
28305;BMP280;15569;42.652;23.040;2023-02-25T08:31:12;92122.69;;;11.97
28305;BMP280;15569;42.652;23.040;2023-02-25T08:33:40;92134.78;;;11.70
28305;BMP280;15569;42.652;23.040;2023-02-25T08:36:12;92131.34;;;11.69
28305;BMP280;15569;42.652;23.040;2023-02-25T08:38:38;92121.75;;;11.66
28305;BMP280;15569;42.652;23.040;2023-02-25T08:41:04;92130.63;;;11.89
28305;BMP280;15569;42.652;23.040;2023-02-25T08:43:31;92115.91;;;11.76
28305;BMP280;15569;42.652;23.040;2023-02-25T08:45:57;92104.72;;;11.66
28305;BMP280;15569;42.652;23.040;2023-02-25T08:48:22;92123.69;;;11.64
28305;BMP280;15569;42.652;23.040;2023-02-25T08:50:48;92118.38;;;11.68
28305;BMP280;15569;42.652;23.040;2023-02-25T08:53:13;92122.75;;;11.77
28305;BMP280;15569;42.652;23.040;2023-02-25T08:55:39;92114.88;;;11.44
28305;BMP280;15569;42.652;23.040;2023-02-25T08:58:05;92120.72;;;11.56
28305;BMP280;15569;42.652;23.040;2023-02-25T09:00:31;92106.53;;;11.38
28305;BMP280;15569;42.652;23.040;2023-02-25T09:02:56;92096.19;;;11.34
28305;BMP280;15569;42.652;23.040;2023-02-25T09:05:22;92100.25;;;11.33
28305;BMP280;15569;42.652;23.040;2023-02-25T09:07:51;92090.91;;;11.38
28305;BMP280;15569;42.652;23.040;2023-02-25T09:10:17;92090.53;;;11.28
28305;BMP280;15569;42.652;23.040;2023-02-25T09:12:44;92096.00;;;11.28
28305;BMP280;15569;42.652;23.040;2023-02-25T09:15:10;92090.19;;;11.38
28305;BMP280;15569;42.652;23.040;2023-02-25T09:17:37;92074.72;;;11.42
28305;BMP280;15569;42.652;23.040;2023-02-25T09:20:02;92083.06;;;11.70
28305;BMP280;15569;42.652;23.040;2023-02-25T09:22:34;92088.69;;;11.76
28305;BMP280;15569;42.652;23.040;2023-02-25T09:25:00;92075.94;;;11.61
28305;BMP280;15569;42.652;23.040;2023-02-25T09:27:26;92069.25;;;11.64
28305;BMP280;15569;42.652;23.040;2023-02-25T09:29:51;92079.72;;;11.71
28305;BMP280;15569;42.652;23.040;2023-02-25T09:32:19;92082.09;;;11.61
28305;BMP280;15569;42.652;23.040;2023-02-25T09:34:45;92084.41;;;11.69
28305;BMP280;15569;42.652;23.040;2023-02-25T09:37:11;92067.44;;;11.70
28305;BMP280;15569;42.652;23.040;2023-02-25T09:39:38;92071.00;;;11.75
28305;BMP280;15569;42.652;23.040;2023-02-25T09:42:10;92078.25;;;11.68
28305;BMP280;15569;42.652;23.040;2023-02-25T09:44:50;92081.81;;;11.73
28305;BMP280;15569;42.652;23.040;2023-02-25T09:49:59;92070.50;;;11.80
28305;BMP280;15569;42.652;23.040;2023-02-25T09:52:30;92075.22;;;11.80
28305;BMP280;15569;42.652;23.040;2023-02-25T09:55:05;92056.78;;;11.78
28305;BMP280;15569;42.652;23.040;2023-02-25T09:57:36;92067.78;;;11.82
28305;BMP280;15569;42.652;23.040;2023-02-25T10:00:03;92054.94;;;11.85
28305;BMP280;15569;42.652;23.040;2023-02-25T10:02:45;92065.41;;;11.93
28305;BMP280;15569;42.652;23.040;2023-02-25T10:05:18;92052.56;;;11.95
28305;BMP280;15569;42.652;23.040;2023-02-25T10:10:59;92047.28;;;12.01
28305;BMP280;15569;42.652;23.040;2023-02-25T10:19:38;92021.72;;;12.12
28305;BMP280;15569;42.652;23.040;2023-02-25T10:22:35;92007.72;;;12.22
28305;BMP280;15569;42.652;23.040;2023-02-25T10:27:33;92005.94;;;12.32
28305;BMP280;15569;42.652;23.040;2023-02-25T10:30:10;92003.69;;;12.25
28305;BMP280;15569;42.652;23.040;2023-02-25T10:32:40;91993.78;;;12.35
28305;BMP280;15569;42.652;23.040;2023-02-25T10:35:27;92008.03;;;12.34
28305;BMP280;15569;42.652;23.040;2023-02-25T10:37:53;92005.84;;;12.28
28305;BMP280;15569;42.652;23.040;2023-02-25T10:40:22;92008.16;;;12.38
28305;BMP280;15569;42.652;23.040;2023-02-25T10:42:51;92000.13;;;12.44
28305;BMP280;15569;42.652;23.040;2023-02-25T10:45:26;92002.56;;;12.57
28305;BMP280;15569;42.652;23.040;2023-02-25T10:48:22;92006.50;;;12.52
28305;BMP280;15569;42.652;23.040;2023-02-25T10:51:06;91992.38;;;12.58
28305;BMP280;15569;42.652;23.040;2023-02-25T10:53:40;91981.50;;;12.60
28305;BMP280;15569;42.652;23.040;2023-02-25T10:56:06;91988.97;;;12.59
28305;BMP280;15569;42.652;23.040;2023-02-25T10:59:09;91978.41;;;12.72
28305;BMP280;15569;42.652;23.040;2023-02-25T11:01:42;91982.25;;;12.62
28305;BMP280;15569;42.652;23.040;2023-02-25T11:04:10;91995.47;;;12.72
28305;BMP280;15569;42.652;23.040;2023-02-25T11:06:40;91990.16;;;12.78
28305;BMP280;15569;42.652;23.040;2023-02-25T11:09:28;91980.13;;;12.85
28305;BMP280;15569;42.652;23.040;2023-02-25T11:12:09;91973.97;;;12.84
28305;BMP280;15569;42.652;23.040;2023-02-25T11:14:36;91968.81;;;12.96
28305;BMP280;15569;42.652;23.040;2023-02-25T11:17:05;91970.78;;;12.94
28305;BMP280;15569;42.652;23.040;2023-02-25T11:19:36;91945.28;;;12.83
28305;BMP280;15569;42.652;23.040;2023-02-25T11:22:18;91957.19;;;12.96
28305;BMP280;15569;42.652;23.040;2023-02-25T11:24:57;91966.84;;;13.01
28305;BMP280;15569;42.652;23.040;2023-02-25T11:27:37;91960.06;;;13.02
28305;BMP280;15569;42.652;23.040;2023-02-25T11:30:07;91944.69;;;13.14
28305;BMP280;15569;42.652;23.040;2023-02-25T11:32:42;91954.19;;;13.11
28305;BMP280;15569;42.652;23.040;2023-02-25T11:35:16;91936.28;;;13.06
28305;BMP280;15569;42.652;23.040;2023-02-25T11:37:43;91931.28;;;13.24
28305;BMP280;15569;42.652;23.040;2023-02-25T11:40:30;91941.53;;;13.24
28305;BMP280;15569;42.652;23.040;2023-02-25T11:45:32;91950.53;;;13.30
28305;BMP280;15569;42.652;23.040;2023-02-25T11:47:58;91935.50;;;13.29
28305;BMP280;15569;42.652;23.040;2023-02-25T11:55:40;91928.97;;;13.42
28305;BMP280;15569;42.652;23.040;2023-02-25T12:00:59;91927.53;;;13.39
28305;BMP280;15569;42.652;23.040;2023-02-25T12:18:13;91931.72;;;13.44
28305;BMP280;15569;42.652;23.040;2023-02-25T12:35:37;91915.72;;;13.61
28305;BMP280;15569;42.652;23.040;2023-02-25T12:41:28;91914.13;;;13.49
28305;BMP280;15569;42.652;23.040;2023-02-25T12:53:02;91895.16;;;13.58
28305;BMP280;15569;42.652;23.040;2023-02-25T12:55:47;91909.69;;;13.66
28305;BMP280;15569;42.652;23.040;2023-02-25T13:01:26;91907.81;;;13.75
28305;BMP280;15569;42.652;23.040;2023-02-25T13:06:39;91909.88;;;13.76
28305;BMP280;15569;42.652;23.040;2023-02-25T13:15:24;91876.47;;;13.78
28305;BMP280;15569;42.652;23.040;2023-02-25T13:23:47;91879.28;;;13.82
28305;BMP280;15569;42.652;23.040;2023-02-25T13:29:48;91884.97;;;13.92
28305;BMP280;15569;42.652;23.040;2023-02-25T13:42:55;91869.88;;;13.89
28305;BMP280;15569;42.652;23.040;2023-02-25T13:51:24;91848.66;;;13.87
28305;BMP280;15569;42.652;23.040;2023-02-25T13:57:19;91865.50;;;13.76
28305;BMP280;15569;42.652;23.040;2023-02-25T14:11:33;91861.63;;;13.87
28305;BMP280;15569;42.652;23.040;2023-02-25T14:44:34;91846.38;;;13.74
28305;BMP280;15569;42.652;23.040;2023-02-25T14:47:13;91843.41;;;13.64
28305;BMP280;15569;42.652;23.040;2023-02-25T14:49:59;91862.63;;;13.70
28305;BMP280;15569;42.652;23.040;2023-02-25T14:52:37;91859.19;;;13.67
28305;BMP280;15569;42.652;23.040;2023-02-25T15:03:31;91845.31;;;13.55
28305;BMP280;15569;42.652;23.040;2023-02-25T15:11:43;91858.13;;;13.48
28305;BMP280;15569;42.652;23.040;2023-02-25T15:14:47;91846.47;;;13.46
28305;BMP280;15569;42.652;23.040;2023-02-25T15:22:26;91837.38;;;13.35
28305;BMP280;15569;42.652;23.040;2023-02-25T15:27:47;91840.00;;;13.29
28305;BMP280;15569;42.652;23.040;2023-02-25T15:30:21;91851.59;;;13.30
28305;BMP280;15569;42.652;23.040;2023-02-25T15:33:12;91838.69;;;13.32
28305;BMP280;15569;42.652;23.040;2023-02-25T15:38:08;91837.25;;;13.29
28305;BMP280;15569;42.652;23.040;2023-02-25T15:43:01;91849.47;;;13.26
28305;BMP280;15569;42.652;23.040;2023-02-25T15:45:52;91851.41;;;13.22
28305;BMP280;15569;42.652;23.040;2023-02-25T15:55:46;91885.38;;;13.15
28305;BMP280;15569;42.652;23.040;2023-02-25T16:00:55;91879.13;;;13.10
28305;BMP280;15569;42.652;23.040;2023-02-25T16:06:05;91856.56;;;13.08
28305;BMP280;15569;42.652;23.040;2023-02-25T16:09:00;91866.06;;;13.07
28305;BMP280;15569;42.652;23.040;2023-02-25T16:14:20;91870.09;;;13.04
28305;BMP280;15569;42.652;23.040;2023-02-25T16:16:49;91848.78;;;12.96
28305;BMP280;15569;42.652;23.040;2023-02-25T16:19:18;91854.38;;;13.02
28305;BMP280;15569;42.652;23.040;2023-02-25T16:21:59;91851.41;;;12.92
28305;BMP280;15569;42.652;23.040;2023-02-25T16:24:26;91852.81;;;12.93
28305;BMP280;15569;42.652;23.040;2023-02-25T16:27:18;91885.72;;;13.01
28305;BMP280;15569;42.652;23.040;2023-02-25T16:30:02;91864.56;;;13.00
28305;BMP280;15569;42.652;23.040;2023-02-25T16:35:12;91880.88;;;12.98
28305;BMP280;15569;42.652;23.040;2023-02-25T16:40:24;91909.50;;;12.97
28305;BMP280;15569;42.652;23.040;2023-02-25T16:42:51;91906.66;;;12.93
28305;BMP280;15569;42.652;23.040;2023-02-25T16:45:51;91909.50;;;12.97
28305;BMP280;15569;42.652;23.040;2023-02-25T16:48:21;91915.47;;;12.91
28305;BMP280;15569;42.652;23.040;2023-02-25T16:50:47;91913.97;;;12.84
28305;BMP280;15569;42.652;23.040;2023-02-25T16:53:18;91916.00;;;12.86
28305;BMP280;15569;42.652;23.040;2023-02-25T16:55:46;91914.66;;;12.85
28305;BMP280;15569;42.652;23.040;2023-02-25T17:00:53;91912.38;;;12.75
28305;BMP280;15569;42.652;23.040;2023-02-25T17:03:19;91916.56;;;12.80
28305;BMP280;15569;42.652;23.040;2023-02-25T17:06:06;91921.25;;;12.76
28305;BMP280;15569;42.652;23.040;2023-02-25T17:08:33;91916.50;;;12.76
28305;BMP280;15569;42.652;23.040;2023-02-25T17:11:00;91917.88;;;12.77
28305;BMP280;15569;42.652;23.040;2023-02-25T17:13:39;91919.59;;;12.64
28305;BMP280;15569;42.652;23.040;2023-02-25T17:16:06;91921.66;;;12.64
28305;BMP280;15569;42.652;23.040;2023-02-25T17:18:51;91926.59;;;12.72
28305;BMP280;15569;42.652;23.040;2023-02-25T17:21:24;91932.63;;;12.68
28305;BMP280;15569;42.652;23.040;2023-02-25T17:23:51;91939.47;;;12.69
28305;BMP280;15569;42.652;23.040;2023-02-25T17:26:18;91955.78;;;12.67
28305;BMP280;15569;42.652;23.040;2023-02-25T17:28:46;91942.06;;;12.63
28305;BMP280;15569;42.652;23.040;2023-02-25T17:31:15;91931.72;;;12.59
28305;BMP280;15569;42.652;23.040;2023-02-25T17:33:59;91933.28;;;12.66
28305;BMP280;15569;42.652;23.040;2023-02-25T17:36:29;91944.22;;;12.68
28305;BMP280;15569;42.652;23.040;2023-02-25T17:41:54;91929.84;;;12.66
28305;BMP280;15569;42.652;23.040;2023-02-25T17:46:48;91921.66;;;12.66
28305;BMP280;15569;42.652;23.040;2023-02-25T17:49:20;91918.94;;;12.66
28305;BMP280;15569;42.652;23.040;2023-02-25T17:51:54;91920.13;;;12.59
28305;BMP280;15569;42.652;23.040;2023-02-25T17:54:22;91910.34;;;12.50
28305;BMP280;15569;42.652;23.040;2023-02-25T17:57:11;91926.88;;;12.56